createdAt,value
2023-11-12T00:01:09.097Z,99595.69
2023-11-12T00:04:00.147Z,99604.61
2023-11-12T00:06:31.207Z,99603.52
2023-11-12T00:09:05.454Z,99611.44
2023-11-12T00:11:37.247Z,99615.92
2023-11-12T00:14:09.033Z,99625.13
2023-11-12T00:16:40.594Z,99623.02
2023-11-12T00:19:11.951Z,99619.47
2023-11-12T00:21:42.934Z,99632.64
2023-11-12T00:24:14.112Z,99628.73
2023-11-12T00:26:45.090Z,99628.45
2023-11-12T00:29:16.231Z,99637.54
2023-11-12T00:31:47.363Z,99637.38
2023-11-12T00:34:18.305Z,99639.58
2023-11-12T00:36:49.173Z,99643.56
2023-11-12T00:39:20.187Z,99642.71
2023-11-12T00:41:51.317Z,99638.89
2023-11-12T00:44:24.844Z,99633.29
2023-11-12T00:46:56.127Z,99638.11
2023-11-12T00:49:27.240Z,99641.36
2023-11-12T00:51:58.231Z,99639.30
2023-11-12T00:54:29.204Z,99632.39
2023-11-12T00:57:00.231Z,99641.75
2023-11-12T00:59:31.266Z,99660.63
2023-11-12T01:02:02.517Z,99649.64
2023-11-12T01:04:34.122Z,99645.36
2023-11-12T01:07:05.194Z,99644.94
2023-11-12T01:09:36.598Z,99644.41
2023-11-12T01:12:08.969Z,99650.10
2023-11-12T01:14:40.135Z,99660.06
2023-11-12T01:17:12.005Z,99664.84
2023-11-12T01:19:43.013Z,99660.51
2023-11-12T01:22:14.097Z,99667.33
2023-11-12T01:24:45.130Z,99665.27
2023-11-12T01:27:16.063Z,99680.88
2023-11-12T01:29:47.103Z,99674.00
2023-11-12T01:32:17.956Z,99677.50
2023-11-12T01:34:49.131Z,99686.59
2023-11-12T01:37:20.152Z,99687.84
2023-11-12T01:39:51.180Z,99683.63
2023-11-12T01:42:22.924Z,99686.60
2023-11-12T01:44:53.968Z,99686.79
2023-11-12T01:47:25.112Z,99692.45
2023-11-12T01:49:56.197Z,99692.50
2023-11-12T01:52:27.190Z,99696.98
2023-11-12T01:54:58.186Z,99698.35
2023-11-12T01:57:29.004Z,99699.67
2023-11-12T02:00:00.080Z,99706.34
2023-11-12T02:02:31.165Z,99708.99
2023-11-12T02:05:02.224Z,99713.45
2023-11-12T02:07:33.300Z,99709.09
2023-11-12T02:10:10.869Z,99719.60
2023-11-12T02:12:41.984Z,99719.09
2023-11-12T02:15:15.401Z,99715.17
2023-11-12T02:17:46.905Z,99714.13
2023-11-12T02:20:17.978Z,99714.68
2023-11-12T02:22:49.638Z,99715.20
2023-11-12T02:25:20.605Z,99713.75
2023-11-12T02:27:51.598Z,99714.45
2023-11-12T02:30:22.599Z,99709.70
2023-11-12T02:32:53.463Z,99709.27
2023-11-12T02:35:24.621Z,99722.55
2023-11-12T02:37:55.645Z,99716.34
2023-11-12T02:40:26.510Z,99719.08
2023-11-12T02:42:57.446Z,99717.08
2023-11-12T02:45:28.594Z,99726.67
2023-11-12T02:47:59.542Z,99719.16
2023-11-12T02:50:33.263Z,99728.52
2023-11-12T02:53:05.726Z,99730.31
2023-11-12T02:55:37.532Z,99724.14
2023-11-12T02:58:08.718Z,99726.70
2023-11-12T03:00:39.897Z,99721.36
2023-11-12T03:03:15.953Z,99721.33
2023-11-12T03:05:47.273Z,99728.16
2023-11-12T03:08:18.217Z,99733.36
2023-11-12T03:10:49.215Z,99737.68
2023-11-12T03:13:20.151Z,99739.08
2023-11-12T03:15:51.150Z,99748.43
2023-11-12T03:18:23.582Z,99745.80
2023-11-12T03:20:54.508Z,99756.57
2023-11-12T03:23:25.509Z,99755.84
2023-11-12T03:25:56.621Z,99752.63
2023-11-12T03:28:28.105Z,99755.80
2023-11-12T03:30:59.083Z,99755.67
2023-11-12T03:33:30.357Z,99756.41
2023-11-12T03:36:01.287Z,99758.50
2023-11-12T03:38:32.467Z,99760.71
2023-11-12T03:41:03.829Z,99763.79
2023-11-12T03:43:34.684Z,99764.17
2023-11-12T03:46:05.903Z,99775.88
2023-11-12T03:48:37.426Z,99773.73
2023-11-12T03:51:08.500Z,99780.85
2023-11-12T03:53:39.572Z,99780.95
2023-11-12T03:56:11.045Z,99789.50
2023-11-12T03:58:42.105Z,99797.40
2023-11-12T04:01:13.750Z,99804.83
2023-11-12T04:03:44.903Z,99795.02
2023-11-12T04:06:16.151Z,99796.94
2023-11-12T04:08:47.377Z,99796.92
2023-11-12T04:11:18.315Z,99801.65
2023-11-12T04:13:49.093Z,99805.68
2023-11-12T04:16:20.953Z,99808.89
2023-11-12T04:18:51.984Z,99805.35
2023-11-12T04:21:23.075Z,99814.33
2023-11-12T04:23:54.067Z,99816.02
2023-11-12T04:26:26.044Z,99825.45
2023-11-12T04:28:57.148Z,99822.50
2023-11-12T04:31:28.241Z,99822.89
2023-11-12T04:33:59.127Z,99828.16
2023-11-12T04:36:30.249Z,99830.63
2023-11-12T04:39:01.266Z,99835.55
2023-11-12T04:41:32.894Z,99840.00
2023-11-12T04:44:03.694Z,99838.67
2023-11-12T04:46:35.350Z,99838.98
2023-11-12T04:49:06.441Z,99846.69
2023-11-12T04:51:37.339Z,99842.13
2023-11-12T04:54:08.416Z,99848.55
2023-11-12T04:56:46.036Z,99849.53
2023-11-12T04:59:16.970Z,99857.59
2023-11-12T05:01:47.929Z,99861.73
2023-11-12T05:04:18.822Z,99856.44
2023-11-12T05:06:49.936Z,99855.55
2023-11-12T05:09:21.096Z,99857.72
2023-11-12T05:11:52.094Z,99852.13
2023-11-12T05:14:22.976Z,99859.80
2023-11-12T05:16:54.003Z,99866.11
2023-11-12T05:19:24.918Z,99879.27
2023-11-12T05:21:55.860Z,99883.15
2023-11-12T05:24:27.067Z,99886.57
2023-11-12T05:26:58.122Z,99883.90
2023-11-12T05:29:29.224Z,99889.20
2023-11-12T05:32:00.242Z,99899.76
2023-11-12T05:34:31.360Z,99898.85
2023-11-12T05:37:02.346Z,99908.45
2023-11-12T05:39:33.467Z,99915.64
2023-11-12T05:42:04.657Z,99919.54
2023-11-12T05:44:35.658Z,99922.77
2023-11-12T05:47:06.949Z,99928.79
2023-11-12T05:49:37.942Z,99934.59
2023-11-12T05:52:09.169Z,99939.89
2023-11-12T05:54:40.353Z,99945.73
2023-11-12T05:57:11.372Z,99955.25
2023-11-12T05:59:42.335Z,99964.39
2023-11-12T06:02:13.320Z,99971.70
2023-11-12T06:04:44.216Z,99980.38
2023-11-12T06:07:15.232Z,99994.40
2023-11-12T06:09:48.039Z,99997.63
2023-11-12T06:12:18.976Z,99996.64
2023-11-12T06:18:55.004Z,100012.52
2023-11-12T06:21:25.810Z,100016.66
2023-11-12T06:23:56.767Z,100023.52
2023-11-12T06:26:27.642Z,100021.79
2023-11-12T06:28:58.477Z,100033.91
2023-11-12T06:31:29.306Z,100033.31
2023-11-12T06:34:00.337Z,100034.26
2023-11-12T06:36:31.255Z,100033.70
2023-11-12T06:39:02.012Z,100039.30
2023-11-12T06:41:33.787Z,100031.71
2023-11-12T06:44:04.817Z,100037.52
2023-11-12T06:46:35.643Z,100040.83
2023-11-12T06:49:09.767Z,100048.95
2023-11-12T06:51:40.684Z,100044.90
2023-11-12T06:54:12.188Z,100055.80
2023-11-12T06:56:43.176Z,100061.36
2023-11-12T06:59:13.976Z,100065.08
2023-11-12T07:01:47.041Z,100070.90
2023-11-12T07:04:17.890Z,100073.29
2023-11-12T07:07:01.635Z,100071.67
2023-11-12T07:09:41.199Z,100079.98
2023-11-12T07:12:12.151Z,100084.11
2023-11-12T07:14:43.346Z,100083.97
2023-11-12T07:17:15.473Z,100083.18
2023-11-12T07:25:05.849Z,100097.16
2023-11-12T07:27:36.890Z,100100.77
2023-11-12T07:30:11.841Z,100106.77
2023-11-12T07:32:42.949Z,100106.07
2023-11-12T07:35:14.523Z,100113.05
2023-11-12T07:37:45.823Z,100114.60
2023-11-12T07:40:19.467Z,100116.11
2023-11-12T07:42:50.561Z,100118.03
2023-11-12T07:45:25.722Z,100118.59
2023-11-12T07:48:02.830Z,100118.45
2023-11-12T07:50:34.014Z,100121.39
2023-11-12T07:53:05.731Z,100124.66
2023-11-12T07:55:36.568Z,100129.80
2023-11-12T07:58:07.551Z,100141.44
2023-11-12T08:00:38.584Z,100138.89
2023-11-12T08:03:09.380Z,100132.18
2023-11-12T08:05:42.053Z,100136.91
2023-11-12T08:08:12.994Z,100142.96
2023-11-12T08:10:43.973Z,100135.73
2023-11-12T08:13:17.834Z,100135.68
2023-11-12T08:15:48.776Z,100136.35
2023-11-12T08:18:19.624Z,100135.88
2023-11-12T08:20:50.707Z,100135.08
2023-11-12T08:23:21.727Z,100141.30
2023-11-12T08:25:52.724Z,100139.47
2023-11-12T08:28:25.753Z,100128.91
2023-11-12T08:30:56.737Z,100132.48
2023-11-12T08:33:27.665Z,100134.75
2023-11-12T08:35:58.433Z,100143.31
2023-11-12T08:38:29.087Z,100138.73
2023-11-12T08:40:59.932Z,100145.05
2023-11-12T08:43:30.778Z,100142.13
2023-11-12T08:46:01.727Z,100136.46
2023-11-12T08:48:34.146Z,100146.75
2023-11-12T08:51:06.251Z,100144.75
2023-11-12T08:53:37.183Z,100150.13
2023-11-12T08:56:08.822Z,100154.17
2023-11-12T08:58:40.295Z,100159.73
2023-11-12T09:01:13.437Z,100165.08
2023-11-12T09:03:44.356Z,100168.93
2023-11-12T09:06:15.330Z,100165.17
2023-11-12T09:08:46.521Z,100158.20
2023-11-12T09:11:17.398Z,100161.36
2023-11-12T09:13:48.442Z,100158.02
2023-11-12T09:16:19.374Z,100162.33
2023-11-12T09:18:51.030Z,100177.09
2023-11-12T09:21:23.839Z,100169.21
2023-11-12T09:23:54.742Z,100179.02
2023-11-12T09:26:25.770Z,100172.98
2023-11-12T09:28:56.642Z,100181.54
2023-11-12T09:31:27.656Z,100175.54
2023-11-12T09:33:59.057Z,100177.39
2023-11-12T09:36:30.169Z,100175.85
2023-11-12T09:39:01.315Z,100180.46
2023-11-12T09:41:32.294Z,100182.36
2023-11-12T09:44:05.258Z,100187.44
2023-11-12T09:46:36.784Z,100199.73
2023-11-12T09:49:07.839Z,100191.84
2023-11-12T09:51:38.785Z,100200.38
2023-11-12T09:54:09.721Z,100200.86
2023-11-12T09:56:40.672Z,100199.34
2023-11-12T09:59:11.585Z,100201.14
2023-11-12T10:01:42.632Z,100204.57
2023-11-12T10:04:14.473Z,100218.98
2023-11-12T10:06:48.132Z,100217.90
2023-11-12T10:09:19.502Z,100208.98
2023-11-12T10:11:50.408Z,100210.25
2023-11-12T10:14:24.236Z,100203.44
2023-11-12T10:16:55.447Z,100210.36
2023-11-12T10:25:56.731Z,100207.80
2023-11-12T10:28:27.319Z,100209.73
2023-11-12T10:30:58.396Z,100205.69
2023-11-12T10:33:29.410Z,100202.16
2023-11-12T10:36:00.756Z,100208.66
2023-11-12T10:44:48.775Z,100211.84
2023-11-12T10:47:20.981Z,100209.58
2023-11-12T10:49:51.897Z,100202.25
2023-11-12T10:52:22.696Z,100204.45
2023-11-12T10:54:53.783Z,100209.71
2023-11-12T10:57:25.495Z,100208.77
2023-11-12T10:59:56.497Z,100219.98
2023-11-12T11:02:31.321Z,100225.91
2023-11-12T11:05:02.591Z,100223.77
2023-11-12T11:07:33.992Z,100243.30
2023-11-12T11:10:05.270Z,100243.16
2023-11-12T11:12:36.031Z,100245.64
2023-11-12T11:15:24.254Z,100253.00
2023-11-12T11:17:55.090Z,100262.42
2023-11-12T11:20:27.334Z,100254.05
2023-11-12T11:22:58.286Z,100265.23
2023-11-12T11:25:31.211Z,100259.92
2023-11-12T11:28:19.382Z,100263.84
2023-11-12T11:31:03.613Z,100259.20
2023-11-12T11:33:37.051Z,100257.73
2023-11-12T11:36:11.317Z,100256.39
2023-11-12T11:38:42.410Z,100249.52
2023-11-12T11:41:13.268Z,100248.33
2023-11-12T11:43:44.777Z,100257.60
2023-11-12T11:46:16.936Z,100262.33
2023-11-12T11:49:04.421Z,100264.90
2023-11-12T11:51:48.058Z,100251.63
2023-11-12T11:54:18.819Z,100263.65
2023-11-12T11:56:49.600Z,100252.52
2023-11-12T11:59:20.327Z,100259.75
2023-11-12T12:01:53.581Z,100252.98
2023-11-12T12:04:24.658Z,100254.35
2023-11-12T12:06:57.225Z,100260.11
2023-11-12T12:09:28.085Z,100262.91
2023-11-12T12:11:58.982Z,100257.98
2023-11-12T12:14:29.874Z,100254.11
2023-11-12T12:17:09.163Z,100251.94
2023-11-12T12:19:39.982Z,100257.11
2023-11-12T12:22:10.875Z,100257.55
2023-11-12T12:24:41.594Z,100254.79
2023-11-12T12:27:14.219Z,100257.46
2023-11-12T12:29:47.581Z,100259.70
2023-11-12T12:32:19.578Z,100259.86
2023-11-12T12:34:58.158Z,100261.93
2023-11-12T12:37:32.546Z,100266.63
2023-11-12T12:40:05.507Z,100264.55
2023-11-12T12:42:36.534Z,100274.44
2023-11-12T12:45:13.861Z,100276.08
2023-11-12T12:47:45.768Z,100283.34
2023-11-12T12:50:18.094Z,100272.01
2023-11-12T12:52:49.084Z,100281.09
2023-11-12T12:55:22.212Z,100276.55
2023-11-12T12:57:53.269Z,100282.33
2023-11-12T13:00:24.034Z,100282.45
2023-11-12T13:02:55.086Z,100288.66
2023-11-12T13:05:26.984Z,100292.09
2023-11-12T13:07:58.099Z,100298.56
2023-11-12T13:10:29.734Z,100299.48
2023-11-12T13:13:00.799Z,100307.62
2023-11-12T13:15:31.748Z,100307.29
2023-11-12T13:18:02.897Z,100304.27
2023-11-12T13:20:33.792Z,100304.01
2023-11-12T13:23:04.640Z,100307.49
2023-11-12T13:25:35.384Z,100305.87
2023-11-12T13:28:10.290Z,100305.20
2023-11-12T13:30:41.131Z,100300.58
2023-11-12T13:33:12.167Z,100303.92
2023-11-12T13:35:43.012Z,100308.16
2023-11-12T13:38:13.987Z,100303.71
2023-11-12T13:40:45.453Z,100302.51
2023-11-12T13:43:16.955Z,100309.98
2023-11-12T13:45:49.950Z,100312.61
2023-11-12T13:48:21.115Z,100312.80
2023-11-12T13:50:54.432Z,100318.52
2023-11-12T13:53:25.528Z,100320.02
2023-11-12T13:55:59.573Z,100314.26
2023-11-12T13:58:34.947Z,100317.66
2023-11-12T14:01:06.957Z,100320.46
2023-11-12T14:03:38.024Z,100330.57
2023-11-12T14:06:09.520Z,100332.52
2023-11-12T14:08:42.559Z,100337.83
2023-11-12T14:11:14.132Z,100344.65
2023-11-12T14:13:47.563Z,100347.16
2023-11-12T14:16:18.947Z,100350.39
2023-11-12T14:18:49.760Z,100354.77
2023-11-12T14:21:22.930Z,100355.95
2023-11-12T14:23:53.846Z,100363.10
2023-11-12T14:26:24.606Z,100362.61
2023-11-12T14:28:55.472Z,100367.27
2023-11-12T14:31:26.252Z,100367.08
2023-11-12T14:33:57.260Z,100362.27
2023-11-12T14:36:28.120Z,100360.96
2023-11-12T14:38:59.275Z,100367.23
2023-11-12T14:41:30.453Z,100373.30
2023-11-12T14:44:02.027Z,100373.60
2023-11-12T14:46:36.459Z,100378.00
2023-11-12T14:49:07.861Z,100380.97
2023-11-12T14:51:42.460Z,100375.69
2023-11-12T14:54:15.214Z,100376.84
2023-11-12T14:56:45.957Z,100383.67
2023-11-12T14:59:17.329Z,100382.07
2023-11-12T15:01:48.346Z,100389.38
2023-11-12T15:04:19.386Z,100388.91
2023-11-12T15:06:52.916Z,100394.61
2023-11-12T15:09:25.940Z,100400.13
2023-11-12T15:11:56.760Z,100401.80
2023-11-12T15:14:27.645Z,100402.30
2023-11-12T15:16:59.005Z,100404.75
2023-11-12T15:19:29.954Z,100411.05
2023-11-12T15:22:00.849Z,100409.47
2023-11-12T15:24:31.843Z,100414.13
2023-11-12T15:27:02.903Z,100416.36
2023-11-12T15:29:33.893Z,100422.64
2023-11-12T15:32:06.830Z,100426.33
2023-11-12T15:34:38.911Z,100432.70
2023-11-12T15:37:11.725Z,100438.91
2023-11-12T15:39:44.152Z,100437.31
2023-11-12T15:42:15.766Z,100437.59
2023-11-12T15:44:50.239Z,100442.36
2023-11-12T15:47:21.769Z,100440.59
2023-11-12T15:49:52.792Z,100445.29
2023-11-12T15:52:25.680Z,100447.78
2023-11-12T15:54:57.538Z,100457.14
2023-11-12T15:57:28.522Z,100461.61
2023-11-12T15:59:59.456Z,100463.55
2023-11-12T16:02:30.183Z,100467.35
2023-11-12T16:05:01.168Z,100475.55
2023-11-12T16:07:32.140Z,100473.98
2023-11-12T16:10:06.065Z,100483.73
2023-11-12T16:12:39.310Z,100488.02
2023-11-12T16:15:14.130Z,100491.40
2023-11-12T16:17:46.772Z,100497.48
2023-11-12T16:20:17.631Z,100499.67
2023-11-12T16:22:48.634Z,100506.36
2023-11-12T16:25:19.390Z,100509.33
2023-11-12T16:27:50.258Z,100504.59
2023-11-12T16:30:21.691Z,100510.23
2023-11-12T16:32:52.632Z,100510.48
2023-11-12T16:35:23.619Z,100515.15
2023-11-12T16:37:56.485Z,100516.44
2023-11-12T16:40:27.388Z,100515.92
2023-11-12T16:43:00.829Z,100514.16
2023-11-12T16:45:32.306Z,100513.66
2023-11-12T16:48:03.818Z,100509.69
2023-11-12T16:50:34.694Z,100507.33
2023-11-12T16:53:05.682Z,100509.84
2023-11-12T16:55:37.077Z,100505.35
2023-11-12T16:58:08.098Z,100513.69
2023-11-12T17:00:39.028Z,100518.21
2023-11-12T17:03:10.006Z,100521.41
2023-11-12T17:05:40.992Z,100529.48
2023-11-12T17:08:11.967Z,100529.54
2023-11-12T17:10:43.319Z,100533.95
2023-11-12T17:13:14.192Z,100535.32
2023-11-12T17:15:45.367Z,100540.73
2023-11-12T17:18:16.337Z,100541.82
2023-11-12T17:20:49.080Z,100536.06
2023-11-12T17:23:20.005Z,100532.74
2023-11-12T17:25:50.994Z,100534.02
2023-11-12T17:28:21.959Z,100533.98
2023-11-12T17:30:52.978Z,100534.94
2023-11-12T17:33:23.960Z,100535.42
2023-11-12T17:35:54.891Z,100534.25
2023-11-12T17:38:28.925Z,100534.06
2023-11-12T17:40:59.730Z,100534.25
2023-11-12T17:43:30.541Z,100536.85
2023-11-12T17:46:04.359Z,100541.71
2023-11-12T17:48:36.320Z,100545.08
2023-11-12T17:51:10.007Z,100547.42
2023-11-12T17:53:41.043Z,100549.95
2023-11-12T17:56:11.985Z,100554.05
2023-11-12T17:58:42.880Z,100554.38
2023-11-12T18:01:13.927Z,100556.42
2023-11-12T18:03:45.071Z,100558.17
2023-11-12T18:06:19.427Z,100551.26
2023-11-12T18:08:50.707Z,100555.13
2023-11-12T18:11:21.734Z,100555.33
2023-11-12T18:13:52.508Z,100560.30
2023-11-12T18:16:23.667Z,100562.77
2023-11-12T18:18:55.861Z,100564.20
2023-11-12T18:21:26.801Z,100569.59
2023-11-12T18:23:57.809Z,100576.33
2023-11-12T18:26:30.591Z,100578.13
2023-11-12T18:29:01.711Z,100582.81
2023-11-12T18:31:32.775Z,100586.77
2023-11-12T18:34:03.712Z,100586.28
2023-11-12T18:36:34.725Z,100583.61
2023-11-12T18:39:07.136Z,100584.58
2023-11-12T18:41:39.268Z,100583.57
2023-11-12T18:44:10.400Z,100584.72
2023-11-12T18:46:44.176Z,100586.80
2023-11-12T18:49:15.106Z,100585.13
2023-11-12T18:51:49.381Z,100586.61
2023-11-12T18:54:21.303Z,100588.26
2023-11-12T18:56:52.266Z,100589.52
2023-11-12T18:59:23.049Z,100593.19
2023-11-12T19:01:55.241Z,100599.80
2023-11-12T19:04:26.013Z,100604.05
2023-11-12T19:06:57.234Z,100606.83
2023-11-12T19:09:28.062Z,100609.09
2023-11-12T19:11:59.081Z,100611.34
2023-11-12T19:14:29.838Z,100614.48
2023-11-12T19:17:01.416Z,100620.65
2023-11-12T19:19:37.750Z,100622.60
2023-11-12T19:22:08.642Z,100621.78
2023-11-12T19:24:39.643Z,100621.70
2023-11-12T19:27:10.544Z,100618.08
2023-11-12T19:29:41.356Z,100621.92
2023-11-12T19:32:12.409Z,100628.54
2023-11-12T19:34:43.282Z,100623.25
2023-11-12T19:37:14.350Z,100625.88
2023-11-12T19:39:45.095Z,100631.50
2023-11-12T19:42:15.906Z,100638.57
2023-11-12T19:44:46.927Z,100641.30
2023-11-12T19:47:17.809Z,100645.48
2023-11-12T19:49:49.502Z,100642.80
2023-11-12T19:52:20.399Z,100645.19
2023-11-12T19:54:51.258Z,100645.25
2023-11-12T19:57:22.091Z,100640.27
2023-11-12T19:59:53.114Z,100642.61
2023-11-12T20:02:24.042Z,100639.70
2023-11-12T20:04:54.917Z,100647.02
2023-11-12T20:07:25.778Z,100654.40
2023-11-12T20:09:57.568Z,100660.61
2023-11-12T20:12:28.495Z,100668.23
2023-11-12T20:15:02.626Z,100671.99
2023-11-12T20:17:33.587Z,100671.53
2023-11-12T20:20:04.427Z,100681.78
2023-11-12T20:22:35.259Z,100684.83
2023-11-12T20:25:08.767Z,100685.70
2023-11-12T20:27:39.856Z,100686.90
2023-11-12T20:30:12.260Z,100686.87
2023-11-12T20:32:43.235Z,100683.44
2023-11-12T20:35:15.858Z,100697.08
2023-11-12T20:37:48.218Z,100699.61
2023-11-12T20:40:19.248Z,100702.07
2023-11-12T20:42:50.069Z,100699.66
2023-11-12T20:45:21.067Z,100701.69
2023-11-12T20:47:53.556Z,100703.23
2023-11-12T20:50:25.415Z,100704.43
2023-11-12T20:52:56.381Z,100705.70
2023-11-12T20:55:27.172Z,100706.13
2023-11-12T20:57:58.187Z,100706.02
2023-11-12T21:00:29.719Z,100702.43
2023-11-12T21:03:02.990Z,100702.86
2023-11-12T21:05:34.009Z,100703.67
2023-11-12T21:08:04.886Z,100706.41
2023-11-12T21:10:35.841Z,100705.97
2023-11-12T21:13:07.060Z,100709.13
2023-11-12T21:15:37.814Z,100703.69
2023-11-12T21:18:12.834Z,100704.25
2023-11-12T21:20:43.683Z,100704.55
2023-11-12T21:23:15.028Z,100702.29
2023-11-12T21:25:45.848Z,100702.20
2023-11-12T21:28:16.623Z,100699.79
2023-11-12T21:30:47.496Z,100699.84
2023-11-12T21:33:18.433Z,100708.40
2023-11-12T21:35:54.707Z,100714.27
2023-11-12T21:38:25.687Z,100716.46
2023-11-12T21:40:57.316Z,100723.46
2023-11-12T21:43:28.021Z,100723.05
2023-11-12T21:46:00.072Z,100725.09
2023-11-12T21:48:31.093Z,100724.76
2023-11-12T21:51:01.873Z,100724.45
2023-11-12T21:53:33.025Z,100725.83
2023-11-12T21:56:05.463Z,100725.08
2023-11-12T21:58:37.147Z,100729.13
2023-11-12T22:01:11.557Z,100728.35
2023-11-12T22:03:42.887Z,100725.77
2023-11-12T22:06:13.775Z,100720.36
2023-11-12T22:08:44.896Z,100714.38
2023-11-12T22:11:15.742Z,100711.48
2023-11-12T22:13:46.790Z,100718.20
2023-11-12T22:16:17.649Z,100720.86
2023-11-12T22:18:48.663Z,100721.67
2023-11-12T22:21:19.562Z,100721.56
2023-11-12T22:23:50.457Z,100720.48
2023-11-12T22:26:21.311Z,100723.38
2023-11-12T22:28:54.043Z,100730.23
2023-11-12T22:31:25.537Z,100730.91
2023-11-12T22:33:56.397Z,100735.09
2023-11-12T22:36:27.440Z,100736.94
2023-11-12T22:38:58.338Z,100739.98
2023-11-12T22:41:29.111Z,100737.79
2023-11-12T22:44:00.682Z,100745.27
2023-11-12T22:46:32.413Z,100742.56
2023-11-12T22:49:03.778Z,100739.23
2023-11-12T22:51:35.310Z,100738.08
2023-11-12T22:54:06.689Z,100734.17
2023-11-12T22:56:38.273Z,100737.56
2023-11-12T22:59:10.368Z,100738.92
2023-11-12T23:01:41.584Z,100743.48
2023-11-12T23:04:12.977Z,100738.64
2023-11-12T23:06:43.942Z,100737.07
2023-11-12T23:09:16.604Z,100735.37
2023-11-12T23:11:47.460Z,100730.99
2023-11-12T23:14:18.315Z,100733.17
2023-11-12T23:16:49.860Z,100729.30
2023-11-12T23:19:20.747Z,100725.27
2023-11-12T23:21:52.231Z,100727.46
2023-11-12T23:24:23.130Z,100722.11
2023-11-12T23:26:53.906Z,100726.11
2023-11-12T23:29:25.705Z,100728.50
2023-11-12T23:31:56.656Z,100727.96
2023-11-12T23:34:27.456Z,100720.70
2023-11-12T23:36:58.223Z,100720.73
2023-11-12T23:39:29.159Z,100720.83
2023-11-12T23:41:59.750Z,100720.95
2023-11-12T23:44:30.621Z,100722.79
2023-11-12T23:47:01.530Z,100724.13
2023-11-12T23:49:33.856Z,100725.14
2023-11-12T23:52:04.816Z,100727.81
2023-11-12T23:54:35.744Z,100730.95
2023-11-12T23:57:06.861Z,100733.50
2023-11-12T23:59:37.730Z,100734.98
